Terminal Aerodrome Forecast
Issued by NWS El Paso, TX

Home | Current Version | Previous Version | Text Only | Print | Product List | Glossary On
Versions: 1 2 3 4 5 6 7 8 9 10 11 12
117
FTUS44 KEPZ 022320
TAFELP
TAF
KELP 022320Z 0300/0324 08005KT P6SM SKC
     FM030800 VRB03KT P6SM SKC
     FM031800 06005KT P6SM SKC=

USA.gov is the U.S. government's official web portal to all federal, state and local government web resources and services.